createdAt,value
2022-09-01T00:01:42.106Z,1.30
2022-09-01T00:06:43.675Z,1.08
2022-09-01T00:11:48.815Z,0.90
2022-09-01T00:16:52.298Z,1.10
2022-09-01T00:21:54.443Z,1.00
2022-09-01T00:26:56.067Z,1.30
2022-09-01T00:31:58.100Z,1.00
2022-09-01T00:36:59.937Z,1.10
2022-09-01T00:42:02.026Z,1.30
2022-09-01T00:47:03.458Z,1.15
2022-09-01T00:52:14.196Z,1.10
2022-09-01T00:57:15.668Z,0.90
2022-09-01T01:02:17.161Z,1.13
2022-09-01T01:07:20.088Z,1.10
2022-09-01T01:12:21.537Z,1.00
2022-09-01T01:17:23.124Z,1.00
2022-09-01T01:23:15.857Z,1.20
2022-09-01T01:28:20.078Z,1.20
2022-09-01T01:33:24.372Z,1.20
2022-09-01T01:38:27.409Z,1.05
2022-09-01T01:43:28.980Z,1.00
2022-09-01T01:48:34.398Z,1.13
2022-09-01T01:53:35.997Z,1.17
2022-09-01T01:58:37.393Z,1.00
2022-09-01T02:03:38.983Z,1.27
2022-09-01T02:08:41.033Z,1.00
2022-09-01T02:13:42.445Z,1.20
2022-09-01T02:18:47.934Z,1.20
2022-09-01T02:23:57.386Z,1.00
2022-09-01T02:29:04.423Z,1.08
2022-09-01T02:34:10.509Z,1.00
2022-09-01T02:39:11.916Z,0.93
2022-09-01T02:44:14.682Z,1.00
2022-09-01T02:49:28.502Z,0.98
2022-09-01T02:54:31.637Z,1.00
2022-09-01T02:59:34.805Z,1.30
2022-09-01T03:04:36.476Z,1.10
2022-09-01T03:09:38.849Z,1.30
2022-09-01T03:14:40.296Z,0.90
2022-09-01T03:19:44.348Z,1.00
2022-09-01T03:24:45.873Z,1.20
2022-09-01T03:29:47.317Z,1.00
2022-09-01T03:34:48.745Z,1.08
2022-09-01T03:39:50.319Z,0.95
2022-09-01T03:44:53.237Z,0.73
2022-09-01T03:49:54.925Z,1.00
2022-09-01T03:54:59.389Z,0.93
2022-09-01T04:00:00.797Z,0.93
2022-09-01T04:05:06.406Z,1.20
2022-09-01T04:10:11.445Z,1.40
2022-09-01T04:15:13.881Z,1.20
2022-09-01T04:20:20.922Z,1.30
2022-09-01T04:25:25.108Z,1.20
2022-09-01T04:30:29.324Z,1.10
2022-09-01T04:35:32.879Z,1.17
2022-09-01T04:40:39.530Z,1.20
2022-09-01T04:45:42.935Z,1.20
2022-09-01T04:50:44.883Z,1.13
2022-09-01T04:55:47.013Z,1.48
2022-09-01T05:00:55.760Z,0.90
2022-09-01T05:05:58.249Z,0.93
2022-09-01T05:10:59.664Z,1.15
2022-09-01T05:16:03.457Z,1.20
2022-09-01T05:21:09.661Z,1.10
2022-09-01T05:26:19.828Z,0.98
2022-09-01T05:31:22.481Z,1.20
2022-09-01T05:36:24.652Z,1.00
2022-09-01T05:41:26.258Z,0.80
2022-09-01T05:46:28.110Z,1.05
2022-09-01T05:51:44.523Z,1.10
2022-09-01T05:56:48.816Z,1.30
2022-09-01T06:01:50.895Z,1.50
2022-09-01T06:07:10.302Z,1.50
2022-09-01T06:12:18.206Z,1.23
2022-09-01T06:17:24.575Z,1.58
2022-09-01T06:22:28.037Z,1.20
2022-09-01T06:27:29.615Z,1.23
2022-09-01T06:32:33.612Z,1.40
2022-09-01T06:37:35.123Z,1.30
2022-09-01T06:42:37.713Z,1.27
2022-09-01T06:47:39.248Z,1.20
2022-09-01T06:58:07.089Z,1.00
2022-09-01T07:03:09.669Z,1.60
2022-09-01T07:08:17.692Z,1.23
2022-09-01T07:13:23.992Z,1.25
2022-09-01T07:18:26.025Z,1.23
2022-09-01T07:23:46.302Z,1.58
2022-09-01T07:28:50.513Z,1.30
2022-09-01T07:42:30.688Z,1.25
2022-09-01T07:44:38.277Z,1.00
2022-09-01T07:50:11.336Z,1.20
2022-09-01T07:55:02.776Z,0.90
2022-09-01T08:00:05.253Z,1.15
2022-09-01T08:05:08.878Z,1.27
2022-09-01T08:10:10.390Z,1.08
2022-09-01T08:15:14.076Z,1.10
2022-09-01T08:20:37.548Z,1.05
2022-09-01T08:25:39.389Z,1.30
2022-09-01T08:30:41.697Z,1.23
2022-09-01T08:35:54.144Z,1.40
2022-09-01T08:40:57.495Z,1.20
2022-09-01T08:46:04.676Z,1.00
2022-09-01T08:51:20.015Z,1.58
2022-09-01T08:56:22.197Z,1.10
2022-09-01T09:01:55.225Z,1.00
2022-09-01T09:07:08.217Z,1.17
2022-09-01T09:12:27.898Z,1.20
2022-09-01T09:17:34.400Z,1.42
2022-09-01T09:22:35.832Z,1.00
2022-09-01T09:27:39.531Z,0.98
2022-09-01T09:38:28.415Z,1.00
2022-09-01T09:43:31.941Z,0.90
2022-09-01T09:48:34.105Z,1.23
2022-09-01T09:53:35.768Z,1.15
2022-09-01T09:58:39.397Z,1.00
2022-09-01T10:03:43.892Z,1.05
2022-09-01T10:08:45.732Z,1.10
2022-09-01T10:13:47.192Z,0.80
2022-09-01T10:18:53.019Z,1.10
2022-09-01T10:23:54.729Z,0.90
2022-09-01T10:29:15.841Z,1.00
2022-09-01T10:34:19.345Z,1.10
2022-09-01T10:39:21.978Z,1.05
2022-09-01T10:44:36.497Z,1.25
2022-09-01T10:49:37.756Z,1.25
2022-09-01T10:54:40.331Z,1.30
2022-09-01T10:59:56.435Z,0.85
2022-09-01T11:04:58.462Z,0.90
2022-09-01T11:10:37.263Z,0.93
2022-09-01T11:15:42.817Z,1.00
2022-09-01T11:20:46.180Z,1.08
2022-09-01T11:31:30.867Z,0.90
2022-09-01T11:36:37.209Z,0.77
2022-09-01T11:41:55.843Z,1.10
2022-09-01T11:47:14.199Z,0.60
2022-09-01T11:52:16.920Z,0.77
2022-09-01T11:57:22.413Z,0.75
2022-09-01T12:02:29.546Z,0.60
2022-09-01T12:07:38.373Z,0.70
2022-09-01T12:12:39.887Z,0.60
2022-09-01T12:17:41.316Z,0.65
2022-09-01T12:22:42.785Z,0.68
2022-09-01T12:27:44.181Z,0.60
2022-09-01T12:32:45.649Z,0.80
2022-09-01T12:37:47.225Z,0.73
2022-09-01T12:42:52.252Z,0.90
2022-09-01T12:47:53.669Z,0.70
2022-09-01T12:52:58.105Z,0.70
2022-09-01T12:58:03.749Z,0.57
2022-09-01T13:03:13.984Z,0.45
2022-09-01T13:08:19.956Z,0.60
2022-09-01T13:13:23.939Z,0.70
2022-09-01T13:18:25.689Z,0.50
2022-09-01T13:23:27.196Z,0.57
2022-09-01T13:28:28.662Z,0.70
2022-09-01T13:33:30.835Z,0.60
2022-09-01T13:38:32.813Z,0.55
2022-09-01T13:43:34.367Z,0.50
2022-09-01T13:53:57.269Z,0.68
2022-09-01T13:58:58.668Z,0.60
2022-09-01T14:04:00.802Z,0.40
2022-09-01T14:09:02.340Z,0.50
2022-09-01T14:14:03.749Z,0.65
2022-09-01T14:19:05.198Z,0.60
2022-09-01T14:29:13.224Z,0.60
2022-09-01T14:34:15.373Z,0.50
2022-09-01T14:39:16.793Z,0.47
2022-09-01T14:44:18.221Z,0.55
2022-09-01T14:49:22.548Z,0.60
2022-09-01T14:54:24.301Z,0.50
2022-09-01T14:59:25.713Z,0.40
2022-09-01T15:04:27.830Z,0.60
2022-09-01T15:09:29.348Z,0.40
2022-09-01T15:14:32.145Z,0.55
2022-09-01T15:19:33.566Z,0.40
2022-09-01T15:24:34.972Z,0.47
2022-09-01T15:29:44.730Z,0.50
2022-09-01T15:34:46.428Z,0.50
2022-09-01T15:39:50.484Z,0.40
2022-09-01T15:44:52.205Z,0.40
2022-09-01T15:49:53.604Z,0.63
2022-09-01T15:54:55.144Z,0.40
2022-09-01T15:59:57.209Z,0.40
2022-09-01T16:04:58.634Z,0.50
2022-09-01T16:10:01.139Z,0.63
2022-09-01T16:15:03.492Z,0.60
2022-09-01T16:20:11.285Z,0.50
2022-09-01T16:25:19.026Z,0.55
2022-09-01T16:30:27.184Z,0.60
2022-09-01T16:35:45.333Z,0.70
2022-09-01T16:40:52.474Z,0.52
2022-09-01T16:45:53.804Z,0.70
2022-09-01T16:51:12.485Z,0.70
2022-09-01T16:56:23.497Z,0.50
2022-09-01T17:01:52.293Z,0.70
2022-09-01T17:07:18.516Z,0.50
2022-09-01T17:12:41.133Z,0.60
2022-09-01T17:17:42.688Z,0.60
2022-09-01T17:22:50.614Z,0.50
2022-09-01T17:27:55.597Z,0.63
2022-09-01T17:32:56.938Z,0.50
2022-09-01T17:38:27.928Z,0.70
2022-09-01T17:44:00.167Z,0.43
2022-09-01T17:49:08.760Z,0.50
2022-09-01T17:54:28.401Z,0.73
2022-09-01T17:59:44.844Z,0.60
2022-09-01T18:05:08.293Z,0.60
2022-09-01T18:10:12.968Z,0.60
2022-09-01T18:15:16.891Z,0.60
2022-09-01T18:20:28.042Z,0.70
2022-09-01T18:25:39.668Z,0.60
2022-09-01T18:30:55.449Z,0.70
2022-09-01T18:36:12.852Z,0.60
2022-09-01T18:41:51.764Z,0.47
2022-09-01T18:46:58.304Z,0.60
2022-09-01T18:52:18.310Z,0.55
2022-09-01T18:57:21.111Z,0.68
2022-09-01T19:02:48.518Z,0.60
2022-09-01T19:07:55.948Z,0.70
2022-09-01T19:13:18.894Z,0.70
2022-09-01T19:18:41.278Z,0.70
2022-09-01T19:23:49.691Z,0.50
2022-09-01T19:28:53.893Z,0.50
2022-09-01T19:34:10.469Z,0.80
2022-09-01T19:39:20.980Z,0.70
2022-09-01T19:44:42.613Z,0.60
2022-09-01T19:49:54.639Z,0.70
2022-09-01T19:55:01.386Z,0.57
2022-09-01T20:00:11.157Z,0.90
2022-09-01T20:05:33.612Z,0.70
2022-09-01T20:10:42.330Z,0.57
2022-09-01T20:16:01.307Z,0.57
2022-09-01T20:21:05.941Z,0.73
2022-09-01T20:26:18.891Z,0.77
2022-09-01T20:31:25.390Z,0.60
2022-09-01T20:36:43.501Z,0.50
2022-09-01T20:42:02.378Z,0.60
2022-09-01T20:47:05.271Z,0.52
2022-09-01T20:52:26.580Z,0.60
2022-09-01T20:57:40.260Z,0.73
2022-09-01T21:03:12.088Z,0.73
2022-09-01T21:08:50.517Z,0.60
2022-09-01T21:14:13.983Z,0.60
2022-09-01T21:19:37.334Z,0.65
2022-09-01T21:24:39.032Z,0.60
2022-09-01T21:29:51.288Z,0.68
2022-09-01T21:34:53.938Z,0.80
2022-09-01T21:39:55.571Z,0.70
2022-09-01T21:44:58.088Z,0.90
2022-09-01T21:49:59.512Z,0.70
2022-09-01T21:55:00.909Z,0.90
2022-09-01T22:00:10.980Z,0.60
2022-09-01T22:05:12.492Z,0.82
2022-09-01T22:10:17.790Z,0.70
2022-09-01T22:15:21.328Z,0.80
2022-09-01T22:20:23.320Z,0.60
2022-09-01T22:25:24.745Z,0.80
2022-09-01T22:30:26.370Z,0.80
2022-09-01T22:35:27.988Z,0.77
2022-09-01T22:40:29.449Z,0.70
2022-09-01T22:45:30.947Z,0.90
2022-09-01T22:50:32.500Z,0.85
2022-09-01T22:55:41.009Z,0.80
2022-09-01T23:00:49.961Z,0.90
2022-09-01T23:06:02.757Z,0.55
2022-09-01T23:11:04.188Z,0.70
2022-09-01T23:16:06.437Z,1.10
2022-09-01T23:21:10.670Z,0.80
2022-09-01T23:26:12.741Z,0.90
2022-09-01T23:31:16.645Z,0.90
2022-09-01T23:36:19.745Z,0.68
2022-09-01T23:41:23.689Z,0.73
2022-09-01T23:46:28.004Z,0.70
2022-09-01T23:51:29.456Z,0.75
2022-09-01T23:56:30.916Z,0.80
